WetterOnline ( https://www.wetteronline.de )

Wetter aktuell Taunus (in 800m)

Aktuelles Wetter: Kleiner Feldberg (802m)

6-stündlich | Neueste Meldungen
Ortszeit Temperatur Wetter
So, 26.01. 13:00 1.9° C Nebel
So, 26.01. 7:00 2.2° C leicht bewölkt
So, 26.01. 1:00 3.4° C wolkig
Sa, 25.01. 19:00 2.8° C wolkig
Sa, 25.01. 13:00 5.6° C leicht bewölkt
Sa, 25.01. 7:00 2.0° C leicht bewölkt
Sa, 25.01. 1:00 2.1° C wolkig
Fr, 24.01. 19:00 3.4° C wolkig
Ortszeit Temperatur Wetter
So, 26.01. 16:00 2.5° C wolkig
So, 26.01. 15:50 2.5° C wolkig
So, 26.01. 15:40 2.5° C leicht bewölkt
So, 26.01. 15:30 3.6° C wolkenlos
So, 26.01. 15:20 3.6° C wolkenlos
So, 26.01. 15:10 3.6° C leicht bewölkt
So, 26.01. 15:00 2.8° C bewölkt
So, 26.01. 14:30 2.8° C Nebel
So, 26.01. 14:00 2.8° C Nebel
So, 26.01. 13:30 2.8° C Nebel
So, 26.01. 13:00 1.9° C Nebel
Ortszeit Relative Feuchte Sichtweite
So, 26.01. 13:00 99% 100 m
So, 26.01. 7:00 99% 8 km
So, 26.01. 1:00 74% 45 km
Sa, 25.01. 19:00 87% 50 km
Sa, 25.01. 13:00 82% 40 km
Sa, 25.01. 7:00 79% 40 km
Sa, 25.01. 1:00 47% 60 km
Fr, 24.01. 19:00 25% 60 km
Ortszeit Relative Feuchte Sichtweite
So, 26.01. 16:00 90% 17 km
So, 26.01. 15:50 90% -
So, 26.01. 15:40 89% -
So, 26.01. 15:30 89% 19 km
So, 26.01. 15:20 89% -
So, 26.01. 15:10 89% -
So, 26.01. 15:00 96% 3.5 km
So, 26.01. 14:30 100% 0.2 km
So, 26.01. 14:00 99% 100 m
So, 26.01. 13:30 99% 0.5 km
So, 26.01. 13:00 99% 100 m
Ortszeit Niederschlagsmenge Niederschlagsart
So, 26.01. 13:00 0.0 l/m2 in 6 Std. -
So, 26.01. 7:00 0.0 l/m2 in 12 Std. -
So, 26.01. 1:00 0.0 l/m2 in 6 Std. -
Sa, 25.01. 19:00 0.0 l/m2 in 12 Std. -
Sa, 25.01. 13:00 0.0 l/m2 in 6 Std. -
Sa, 25.01. 7:00 0.0 l/m2 in 12 Std. -
Sa, 25.01. 1:00 0.0 l/m2 in 6 Std. -
Fr, 24.01. 19:00 0.0 l/m2 in 12 Std. -
Ortszeit Niederschlagsmenge Niederschlagsart
So, 26.01. 16:00 0.0 l/m2 in 1 Std. -
So, 26.01. 15:50 keine Meldung -
So, 26.01. 15:40 keine Meldung -
So, 26.01. 15:30 0.0 l/m2 in 1 Std. -
So, 26.01. 15:20 keine Meldung -
So, 26.01. 15:10 keine Meldung -
So, 26.01. 15:00 0.0 l/m2 in 1 Std. -
So, 26.01. 14:30 0.0 l/m2 in 1 Std. -
So, 26.01. 14:00 0.0 l/m2 in 1 Std. -
So, 26.01. 13:30 0.0 l/m2 in 1 Std. -
So, 26.01. 13:00 0.0 l/m2 in 1 Std. -
Ortszeit Stärke Spitze Richtung
km/h Bft. km/h Grad Sektor
So, 26.01. 13:00 15 3 33 230° SW
So, 26.01. 7:00 14 3 22 180° S
So, 26.01. 1:00 7 2 19 230° SW
Sa, 25.01. 19:00 9 2 19 300° NW
Sa, 25.01. 13:00 6 1 24 250° W
Sa, 25.01. 7:00 13 3 28 300° NW
Sa, 25.01. 1:00 11 2 22 290° W
Fr, 24.01. 19:00 11 2 29 290° W
Ortszeit Stärke Spitze Richtung
km/h Bft. km/h Grad Sektor
So, 26.01. 16:00 9 2 26 250° W
So, 26.01. 15:50 9 2 - 250° W
So, 26.01. 15:40 11 2 - 240° SW
So, 26.01. 15:30 11 2 25 240° SW
So, 26.01. 15:20 11 2 - 240° SW
So, 26.01. 15:10 13 3 - 240° SW
So, 26.01. 15:00 17 3 31 230° SW
So, 26.01. 14:30 17 3 31 220° SW
So, 26.01. 14:00 18 3 36 220° SW
So, 26.01. 13:30 18 3 36 220° SW
So, 26.01. 13:00 15 3 30 230° SW
Ortszeit Untergrenze Bedeckung Gattung
total tief tief mittel hoch
So, 26.01. 13:00 <30 m 8/8 0/8 - - -
So, 26.01. 7:00 <30 m 6/8 0/8 - - -
So, 26.01. 1:00 7800 m 8/8 0/8 - - -
Sa, 25.01. 19:00 8400 m 8/8 0/8 - - -
Sa, 25.01. 13:00 7800 m 6/8 0/8 - - -
Sa, 25.01. 7:00 7500 m 4/8 0/8 - - -
Sa, 25.01. 1:00 9000 m 8/8 0/8 - - -
Fr, 24.01. 19:00 9000 m 8/8 0/8 - - -
Ortszeit Bedeckungsgrad in Achtel und Wolkenuntergrenze
So, 26.01. 16:00 5(1020m) 6(8700m)
So, 26.01. 15:50 5(1020m) 6(8700m)
So, 26.01. 15:40 1(1080m) 4(8700m)
So, 26.01. 15:30 1(8700m)
So, 26.01. 15:20 keine Wolken
So, 26.01. 15:10 2(<30m) 2(1080m) 2(1290m)
So, 26.01. 15:00 7(<30m) 7(1080m) 7(1290m)
So, 26.01. 14:30 8(<30m)
So, 26.01. 14:00 8(<30m)
So, 26.01. 13:30 8(<30m)
So, 26.01. 13:00 8(<30m)
Ortszeit Stationsdruck (hPa) Tendenz (hPa in 3 Std.)
So, 26.01. 13:00 921 - 0,6
So, 26.01. 7:00 921 - 0,6
So, 26.01. 1:00 923 - 0,6
Sa, 25.01. 19:00 923 + 0,2
Sa, 25.01. 13:00 924 0,0
Sa, 25.01. 7:00 923 + 0,1
Sa, 25.01. 1:00 924 - 0,6
Fr, 24.01. 19:00 924 + 0,3
Ortszeit Stationsdruck (hPa) Tendenz (hPa in 3 Std.)
So, 26.01. 16:00 920 - 0,7
So, 26.01. 15:50 920 keine Meldung
So, 26.01. 15:40 920 keine Meldung
So, 26.01. 15:30 920 - 1,1
So, 26.01. 15:20 920 keine Meldung
So, 26.01. 15:10 920 keine Meldung
So, 26.01. 15:00 920 - 1,5
So, 26.01. 14:30 920 - 1,4
So, 26.01. 14:00 920 - 1,1
So, 26.01. 13:30 920 - 1,0
So, 26.01. 13:00 921 - 0,6
Ortszeit Schneehöhe (cm)
So, 26.01. 13:00 0
So, 26.01. 7:00 0
So, 26.01. 1:00 0
Sa, 25.01. 19:00 0
Sa, 25.01. 13:00 0
Sa, 25.01. 7:00 0
Sa, 25.01. 1:00 0
Fr, 24.01. 19:00 0
Ortszeit Schneehöhe (cm)
So, 26.01. 16:00 0
So, 26.01. 15:50 0
So, 26.01. 15:40 0
So, 26.01. 15:30 0
So, 26.01. 15:20 0
So, 26.01. 15:10 0
So, 26.01. 15:00 0
So, 26.01. 14:30 0
So, 26.01. 14:00 0
So, 26.01. 13:30 0
So, 26.01. 13:00 0
Link zu dieser Seite / Seite empfehlen

Das Wetter in ...